Terminal Aerodrome Forecast
Issued by NWS Bismarck, ND

Home | Current Version | Previous Version | Graphics & Text | Print | Product List | Glossary On
Versions: 1 2 3 4 5 6 7 8 9 10 11 12 13 14 15 16
000
FTUS43 KBIS 132300
TAFISN
TAF
KISN 132326Z 1400/1424 34011G16KT P6SM BKN060
     FM140100 34007KT P6SM SKC
     FM140600 36005KT P6SM BKN025
     FM140900 35009KT P6SM FEW040=

USA.gov is the U.S. government's official web portal to all federal, state and local government web resources and services.